Caseyville, IL (62232)

04:54 PM CDT del 25 Agosto 2016 (GMT -0500)
By Illini School | | Change Station

Alt. 542 ft 38.62 °N, 90.02 °W | Updated 12 minutes ago

Mostly Cloudy
Molto nuvoloso
90.8 °F
Sembra 105 °F
N
2.0
Vento Variabile Vento da SE

Oggi
Massima -- | Minima -- °F
--% Possibilità di precip.
Ieri
Massima -- | Minima -- °F
Precip. -- in
Pressione 30.01 in
Visibilità 10.0 miglia
Nuvole Alcuni 4800 ft
Nubi sparse 6000 ft
Molto nuvoloso 7000 ft
Indice di calore 105 °F
Punto di rugiada 77 °F
Umidità 65%
Piovosità 0.00 in
Spessore del manto nevoso Non disponibile.
6:23 AM 7:39 PM
Ultimo quarto, 41% visible
METAR KCPS 252053Z VRB04KT 10SM FEW048 SCT060 BKN070 34/21 A3002 RMK AO2 SLP162 T03390211 56013
Pressione 30.01 in
Visibilità 10.0 miglia
Nuvole Alcuni 4800 ft
Nubi sparse 6000 ft
Molto nuvoloso 7000 ft
Indice di calore 105 °F
Punto di rugiada 77 °F
Umidità 65%
Piovosità 0.00 in
Spessore del manto nevoso Non disponibile.
6:23 AM 7:39 PM
Ultimo quarto, 41% visible
METAR KCPS 252053Z VRB04KT 10SM FEW048 SCT060 BKN070 34/21 A3002 RMK AO2 SLP162 T03390211 56013
A tropical disturbance pushing toward the Bahamas, is expected to develop into a tropical depression or storm, and will likely target Florida and the Gulf Coast this weekend into next week.

Right now, the disturbance remains a broad area of low pressure pushing through the Dominican Republic and Haiti, headed toward the southeast Bahamas. Rainfall totals over 3 inches (with locally higher amounts) are expected in Hispañiola, particularly over elevated terrain.

10-Day Weather Forecast

Almanac

Astronomia

Aug. 25, 2016 Alba Tramonto
Ora attuale
Crepuscolo civile
Crepuscolo nautico
Crepuscolo astronomico
Luna
Estensione della luce visibile
Lunghezza del giorno
Tomorrow will be .
, % of the Moon is Illuminated

Gli estremi di oggi

State Highs State Lows

Community

WunderPhotos

Upload Photos

1,934,947 foto caricate!

WunderBlog® & News

Nearby

Qualità dell'aria

  Qualità dell'aria Indice AQ Inquinante
Not available.

Profondità neve

Stazione Profondità Altitudine

Attività sismica

Città  Distanza Mag. Data & Ora
Minimo Magnitudo Mostrato è 2.5.

Temperature delle acque costiere

Località Temperatura

Stations

Stazioni meteo nelle vicinanze

Ubicazione della stazione Temp. Raffreddamento del vento Punto di rugiada Umidità Vento Precip. Alt. Aggiornato Tipo
                   

Watches & Warnings

There are currently no watches in effect.